| time (UTC) | temp C | wind direction | speed KPH | gust KPH | rain 1hr cm | rain 24hr cm | rain mn cm | humidity % | barometer mb |
| 20260903132424 | 22 | 265 | 12.9 | 16.1 | 0.00 | 0.00 | 0.00 | 48 | 1020.0 |
| 20260903131923 | 22 | 261 | 17.7 | 25.7 | 0.00 | 0.00 | 0.00 | 46 | 1019.8 |
| 20260903131422 | 22 | 267 | 11.3 | 14.5 | 0.00 | 0.00 | 0.00 | 48 | 1019.7 |
| 20260903130920 | 22 | 277 | 17.7 | 22.5 | 0.00 | 0.00 | 0.00 | 47 | 1019.7 |
| 20260903130419 | 23 | 280 | 19.3 | 25.7 | 0.00 | 0.00 | 0.00 | 47 | 1019.8 |
| 20260903125918 | 23 | 291 | 14.5 | 22.5 | 0.00 | 0.00 | 0.00 | 46 | 1019.9 |
| 20260903125417 | 23 | 272 | 16.1 | 19.3 | 0.00 | 0.00 | 0.00 | 45 | 1020.0 |
| 20260903124915 | 23 | 273 | 16.1 | 27.4 | 0.00 | 0.00 | 0.00 | 45 | 1019.8 |
| 20260903124414 | 23 | 289 | 9.7 | 14.5 | 0.00 | 0.00 | 0.00 | 50 | 1019.9 |
| 20260903123913 | 23 | 277 | 14.5 | 22.5 | 0.00 | 0.00 | 0.00 | 47 | 1019.9 |
| 20260903123412 | 23 | 277 | 14.5 | 17.7 | 0.00 | 0.00 | 0.00 | 47 | 1019.9 |
| 20260903122911 | 22 | 273 | 16.1 | 22.5 | 0.00 | 0.00 | 0.00 | 47 | 1019.9 |
| 20260903122409 | 22 | 268 | 19.3 | 25.7 | 0.00 | 0.00 | 0.00 | 47 | 1019.9 |
| 20260903121908 | 22 | 318 | 12.9 | 22.5 | 0.00 | 0.00 | 0.00 | 47 | 1019.8 |
| 20260903121407 | 22 | 282 | 20.9 | 27.4 | 0.00 | 0.00 | 0.00 | 47 | 1020.1 |
| 20260903120906 | 22 | 280 | 19.3 | 24.1 | 0.00 | 0.00 | 0.00 | 48 | 1019.9 |
| 20260903120405 | 22 | 273 | 19.3 | 24.1 | 0.00 | 0.00 | 0.00 | 47 | 1020.0 |
| 20260903115904 | 22 | 280 | 14.5 | 24.1 | 0.00 | 0.00 | 0.00 | 48 | 1020.0 |
| 20260903115403 | 22 | 275 | 24.1 | 29.0 | 0.00 | 0.00 | 0.00 | 47 | 1020.2 |
| 20260903114901 | 22 | 268 | 20.9 | 24.1 | 0.00 | 0.00 | 0.00 | 48 | 1020.1 |
| 20260903114400 | 22 | 270 | 20.9 | 27.4 | 0.00 | 0.00 | 0.00 | 49 | 1020.3 |
| 20260903113859 | 22 | 284 | 24.1 | 30.6 | 0.00 | 0.00 | 0.00 | 48 | 1020.4 |
| 20260903113358 | 22 | 282 | 17.7 | 22.5 | 0.00 | 0.00 | 0.00 | 48 | 1020.4 |
| 20260903112857 | 22 | 296 | 14.5 | 22.5 | 0.00 | 0.00 | 0.00 | 53 | 1020.6 |
| 20260903112356 | 22 | 283 | 17.7 | 24.1 | 0.00 | 0.00 | 0.00 | 49 | 1020.4 |
| 20260903111855 | 22 | 303 | 12.9 | 20.9 | 0.00 | 0.00 | 0.00 | 52 | 1020.5 |
| 20260903111353 | 22 | 272 | 19.3 | 27.4 | 0.00 | 0.00 | 0.00 | 48 | 1020.6 |
| 20260903110852 | 23 | 280 | 19.3 | 27.4 | 0.00 | 0.00 | 0.00 | 48 | 1020.6 |
| 20260903110351 | 23 | 282 | 11.3 | 19.3 | 0.00 | 0.00 | 0.00 | 55 | 1020.9 |
| 20260903105850 | 23 | 293 | 12.9 | 17.7 | 0.00 | 0.00 | 0.00 | 51 | 1020.9 |
| 20260903105349 | 23 | 273 | 20.9 | 29.0 | 0.00 | 0.00 | 0.00 | 48 | 1020.9 |
| 20260903104847 | 22 | 277 | 17.7 | 33.8 | 0.00 | 0.00 | 0.00 | 49 | 1021.0 |
| 20260903104346 | 22 | 270 | 19.3 | 30.6 | 0.00 | 0.00 | 0.00 | 50 | 1021.0 |
| 20260903103845 | 22 | 248 | 11.3 | 16.1 | 0.00 | 0.00 | 0.00 | 53 | 1021.2 |
| 20260903103344 | 22 | 282 | 16.1 | 20.9 | 0.00 | 0.00 | 0.00 | 53 | 1021.3 |
| 20260903102842 | 22 | 293 | 14.5 | 22.5 | 0.00 | 0.00 | 0.00 | 51 | 1021.1 |
| 20260903102341 | 22 | 308 | 11.3 | 17.7 | 0.00 | 0.00 | 0.00 | 56 | 1021.1 |
| 20260903101840 | 22 | 286 | 12.9 | 19.3 | 0.00 | 0.00 | 0.00 | 54 | 1021.2 |
| 20260903101339 | 22 | 296 | 11.3 | 16.1 | 0.00 | 0.00 | 0.00 | 55 | 1021.3 |
| 20260903100838 | 22 | 272 | 17.7 | 24.1 | 0.00 | 0.00 | 0.00 | 53 | 1021.3 |
| 20260903100337 | 22 | 292 | 16.1 | 24.1 | 0.00 | 0.00 | 0.00 | 54 | 1021.4 |
| 20260903095836 | 22 | 284 | 19.3 | 27.4 | 0.00 | 0.00 | 0.00 | 52 | 1021.4 |
| 20260903095334 | 22 | 267 | 17.7 | 25.7 | 0.00 | 0.00 | 0.00 | 54 | 1021.4 |
| 20260903094833 | 22 | 268 | 17.7 | 25.7 | 0.00 | 0.00 | 0.00 | 55 | 1021.5 |
| 20260903094332 | 21 | 265 | 17.7 | 20.9 | 0.00 | 0.00 | 0.00 | 58 | 1021.5 |
| 20260903093831 | 21 | 260 | 14.5 | 19.3 | 0.00 | 0.00 | 0.00 | 57 | 1021.5 |
| 20260903093330 | 21 | 267 | 20.9 | 27.4 | 0.00 | 0.00 | 0.00 | 55 | 1021.5 |
| 20260903092829 | 21 | 288 | 19.3 | 27.4 | 0.00 | 0.00 | 0.00 | 58 | 1021.4 |
| 20260903092328 | 21 | 306 | 16.1 | 29.0 | 0.00 | 0.00 | 0.00 | 57 | 1021.3 |
| 20260903091827 | 21 | 282 | 16.1 | 22.5 | 0.00 | 0.00 | 0.00 | 64 | 1021.6 |
| 20260903091326 | 20 | 267 | 17.7 | 20.9 | 0.00 | 0.00 | 0.00 | 63 | 1021.6 |
| 20260903090825 | 20 | 284 | 11.3 | 19.3 | 0.00 | 0.00 | 0.00 | 71 | 1021.5 |
| 20260903090324 | 21 | 315 | 6.4 | 11.3 | 0.00 | 0.00 | 0.00 | 100 | 1021.6 |
| 20260903085822 | 21 | 303 | 6.4 | 9.7 | 0.00 | 0.00 | 0.00 | 93 | 1021.6 |
| 20260903085321 | 21 | 244 | 8.0 | 9.7 | 0.00 | 0.00 | 0.00 | 100 | 1021.7 |
| 20260903084820 | 20 | 266 | 9.7 | 11.3 | 0.00 | 0.00 | 0.00 | 89 | 1021.8 |
| 20260903084319 | 20 | 246 | 9.7 | 12.9 | 0.00 | 0.00 | 0.00 | 98 | 1021.8 |
| 20260903083818 | 19 | 254 | 9.7 | 12.9 | 0.00 | 0.00 | 0.00 | 98 | 1021.8 |
| 20260903083317 | 20 | 273 | 9.7 | 12.9 | 0.00 | 0.00 | 0.00 | 89 | 1021.9 |
| 20260903082816 | 20 | 255 | 9.7 | 14.5 | 0.00 | 0.00 | 0.00 | 91 | 1021.8 |
| 20260903082315 | 20 | 258 | 9.7 | 14.5 | 0.00 | 0.00 | 0.00 | 100 | 1021.9 |
| 20260903081814 | 20 | 258 | 8.0 | 14.5 | 0.00 | 0.00 | 0.00 | 100 | 1021.8 |
| 20260903081313 | 20 | 232 | 8.0 | 9.7 | 0.00 | 0.00 | 0.00 | 100 | 1021.9 |
| 20260903080812 | 20 | 265 | 6.4 | 9.7 | 0.00 | 0.00 | 0.00 | 100 | 1022.0 |
| 20260903080310 | 20 | 249 | 8.0 | 9.7 | 0.00 | 0.00 | 0.00 | 100 | 1022.0 |
| 20260903075809 | 20 | 244 | 6.4 | 9.7 | 0.00 | 0.00 | 0.00 | 100 | 1021.9 |
| 20260903075308 | 19 | 232 | 4.8 | 6.4 | 0.00 | 0.00 | 0.00 | 100 | 1022.0 |
| 20260903074807 | 18 | 237 | 6.4 | 8.0 | 0.00 | 0.00 | 0.00 | 100 | 1022.0 |
| 20260903074306 | 18 | 227 | 6.4 | 9.7 | 0.00 | 0.00 | 0.00 | 100 | 1021.9 |
| 20260903073805 | 18 | 235 | 4.8 | 8.0 | 0.00 | 0.00 | 0.00 | 100 | 1022.0 |
| 20260903073305 | 17 | 242 | 6.4 | 9.7 | 0.00 | 0.00 | 0.00 | 100 | 1022.0 |
| 20260903072804 | 17 | 237 | 8.0 | 11.3 | 0.00 | 0.00 | 0.00 | 100 | 1022.0 |
| 20260903072306 | 17 | 244 | 11.3 | 12.9 | 0.00 | 0.00 | 0.00 | 100 | 1022.0 |
| 20260903071802 | 17 | 235 | 8.0 | 9.7 | 0.00 | 0.00 | 0.00 | 100 | 1022.0 |
| 20260903071301 | 17 | 235 | 8.0 | 9.7 | 0.00 | 0.00 | 0.00 | 100 | 1022.0 |
| 20260903070800 | 16 | 239 | 9.7 | 11.3 | 0.00 | 0.00 | 0.00 | 100 | 1022.0 |
| 20260903070300 | 16 | 227 | 8.0 | 9.7 | 0.00 | 0.00 | 0.00 | 100 | 1022.1 |
| 20260903065759 | 16 | 237 | 8.0 | 9.7 | 0.00 | 0.00 | 0.00 | 100 | 1022.0 |
| 20260903065258 | 16 | 232 | 6.4 | 8.0 | 0.00 | 0.00 | 0.00 | 100 | 1022.0 |
| 20260903064758 | 15 | 225 | 8.0 | 9.7 | 0.00 | 0.00 | 0.00 | 100 | 1022.0 |
| 20260903064257 | 15 | 228 | 8.0 | 9.7 | 0.00 | 0.00 | 0.00 | 100 | 1021.9 |
| 20260903063756 | 15 | 249 | 8.0 | 11.3 | 0.00 | 0.00 | 0.00 | 100 | 1021.8 |
| 20260903063256 | 15 | 228 | 9.7 | 11.3 | 0.00 | 0.00 | 0.00 | 100 | 1021.8 |
| 20260903062755 | 15 | 225 | 9.7 | 14.5 | 0.00 | 0.00 | 0.00 | 100 | 1021.8 |
| 20260903062255 | 15 | 228 | 9.7 | 14.5 | 0.00 | 0.00 | 0.00 | 100 | 1021.8 |
| 20260903061755 | 15 | 225 | 8.0 | 11.3 | 0.00 | 0.00 | 0.00 | 100 | 1021.8 |
| 20260903061254 | 15 | 225 | 11.3 | 16.1 | 0.00 | 0.00 | 0.00 | 100 | 1021.8 |
| 20260903060754 | 14 | 228 | 8.0 | 9.7 | 0.00 | 0.00 | 0.00 | 100 | 1021.8 |
| 20260903060253 | 14 | 235 | 8.0 | 9.7 | 0.00 | 0.00 | 0.00 | 100 | 1021.7 |
| 20260903055753 | 14 | 249 | 9.7 | 12.9 | 0.00 | 0.00 | 0.00 | 100 | 1021.7 |
| 20260903055253 | 14 | 239 | 8.0 | 11.3 | 0.00 | 0.00 | 0.00 | 100 | 1021.6 |
| 20260903054752 | 13 | 240 | 11.3 | 20.9 | 0.00 | 0.00 | 0.00 | 100 | 1021.6 |
| 20260903054252 | 13 | 227 | 9.7 | 19.3 | 0.00 | 0.00 | 0.00 | 100 | 1021.6 |
| 20260903053751 | 13 | 235 | 11.3 | 14.5 | 0.00 | 0.00 | 0.00 | 100 | 1021.6 |
| 20260903053251 | 13 | 235 | 8.0 | 11.3 | 0.00 | 0.00 | 0.00 | 100 | 1021.6 |
| 20260903052751 | 13 | 239 | 9.7 | 22.5 | 0.00 | 0.00 | 0.00 | 100 | 1021.6 |
| 20260903052250 | 13 | 225 | 9.7 | 11.3 | 0.00 | 0.00 | 0.00 | 100 | 1021.5 |
| 20260903051750 | 13 | 235 | 11.3 | 20.9 | 0.00 | 0.00 | 0.00 | 100 | 1021.5 |
| 20260903051250 | 13 | 225 | 9.7 | 11.3 | 0.00 | 0.00 | 0.00 | 100 | 1021.4 |
| 20260903050749 | 13 | 232 | 11.3 | 12.9 | 0.00 | 0.00 | 0.00 | 100 | 1021.4 |
| 20260903050249 | 13 | 232 | 11.3 | 12.9 | 0.00 | 0.00 | 0.00 | 100 | 1021.4 |
| 20260903045749 | 13 | 225 | 11.3 | 12.9 | 0.00 | 0.00 | 0.00 | 100 | 1021.5 |
| 20260903045248 | 13 | 235 | 11.3 | 12.9 | 0.00 | 0.00 | 0.00 | 100 | 1021.5 |
| 20260903044748 | 13 | 234 | 11.3 | 12.9 | 0.00 | 0.00 | 0.00 | 100 | 1021.5 |
| 20260903044248 | 13 | 235 | 9.7 | 12.9 | 0.00 | 0.00 | 0.00 | 100 | 1021.4 |
| 20260903043747 | 13 | 234 | 9.7 | 12.9 | 0.00 | 0.00 | 0.00 | 100 | 1021.5 |
| 20260903043247 | 13 | 253 | 11.3 | 12.9 | 0.00 | 0.00 | 0.00 | 100 | 1021.4 |
| 20260903042747 | 13 | 237 | 12.9 | 14.5 | 0.00 | 0.00 | 0.00 | 100 | 1021.4 |
| 20260903042247 | 13 | 228 | 11.3 | 12.9 | 0.00 | 0.00 | 0.00 | 100 | 1021.4 |
| 20260903041746 | 13 | 230 | 9.7 | 11.3 | 0.00 | 0.00 | 0.00 | 100 | 1021.3 |
| 20260903041246 | 13 | 228 | 8.0 | 9.7 | 0.00 | 0.00 | 0.00 | 100 | 1021.3 |
| 20260903040746 | 13 | 237 | 8.0 | 9.7 | 0.00 | 0.00 | 0.00 | 100 | 1021.4 |
| 20260903040245 | 13 | 246 | 8.0 | 9.7 | 0.00 | 0.00 | 0.00 | 100 | 1021.3 |
| 20260903035745 | 13 | 234 | 9.7 | 11.3 | 0.00 | 0.00 | 0.00 | 100 | 1021.3 |
| 20260903035245 | 13 | 232 | 9.7 | 11.3 | 0.00 | 0.00 | 0.00 | 100 | 1021.2 |
| 20260903034744 | 13 | 232 | 9.7 | 11.3 | 0.00 | 0.00 | 0.00 | 100 | 1021.3 |
| 20260903034244 | 13 | 225 | 11.3 | 12.9 | 0.00 | 0.00 | 0.00 | 100 | 1021.3 |
| 20260903033744 | 13 | 228 | 9.7 | 11.3 | 0.00 | 0.00 | 0.00 | 100 | 1021.2 |
| 20260903033243 | 13 | 228 | 11.3 | 11.3 | 0.00 | 0.00 | 0.00 | 100 | 1021.3 |
| 20260903032743 | 13 | 228 | 8.0 | 12.9 | 0.00 | 0.00 | 0.00 | 100 | 1021.3 |
| 20260903032243 | 13 | 222 | 9.7 | 12.9 | 0.00 | 0.00 | 0.00 | 100 | 1021.3 |
| 20260903031742 | 13 | 235 | 8.0 | 9.7 | 0.00 | 0.00 | 0.00 | 100 | 1021.3 |
| 20260903031242 | 13 | 228 | 9.7 | 11.3 | 0.00 | 0.00 | 0.00 | 100 | 1021.3 |
| 20260903030742 | 13 | 223 | 8.0 | 11.3 | 0.00 | 0.00 | 0.00 | 100 | 1021.3 |
| 20260903030241 | 13 | 227 | 8.0 | 9.7 | 0.00 | 0.00 | 0.00 | 100 | 1021.3 |
| 20260903025741 | 13 | 228 | 8.0 | 9.7 | 0.00 | 0.00 | 0.00 | 100 | 1021.3 |
| 20260903025241 | 13 | 225 | 9.7 | 11.3 | 0.00 | 0.00 | 0.00 | 100 | 1021.3 |
| 20260903024740 | 13 | 222 | 9.7 | 9.7 | 0.00 | 0.00 | 0.00 | 100 | 1021.2 |
| 20260903024240 | 13 | 225 | 9.7 | 11.3 | 0.00 | 0.00 | 0.00 | 100 | 1021.2 |
| 20260903023740 | 13 | 225 | 9.7 | 11.3 | 0.00 | 0.00 | 0.00 | 100 | 1021.2 |
| 20260903023240 | 13 | 220 | 9.7 | 12.9 | 0.00 | 0.00 | 0.00 | 100 | 1021.1 |
| 20260903022739 | 13 | 220 | 8.0 | 9.7 | 0.00 | 0.00 | 0.00 | 100 | 1021.1 |
| 20260903022239 | 13 | 208 | 6.4 | 9.7 | 0.00 | 0.00 | 0.00 | 100 | 1021.1 |
| 20260903021739 | 13 | 215 | 8.0 | 9.7 | 0.00 | 0.00 | 0.00 | 100 | 1021.1 |
| 20260903021238 | 13 | 222 | 9.7 | 11.3 | 0.00 | 0.00 | 0.00 | 100 | 1021.1 |
| 20260903020738 | 13 | 225 | 9.7 | 11.3 | 0.00 | 0.00 | 0.00 | 100 | 1021.1 |
| 20260903020238 | 13 | 232 | 9.7 | 12.9 | 0.00 | 0.00 | 0.00 | 100 | 1021.1 |
| 20260903015737 | 13 | 225 | 9.7 | 11.3 | 0.00 | 0.00 | 0.00 | 100 | 1021.1 |
| 20260903015237 | 13 | 225 | 9.7 | 12.9 | 0.00 | 0.00 | 0.00 | 100 | 1021.1 |
| 20260903014737 | 13 | 225 | 9.7 | 12.9 | 0.00 | 0.00 | 0.00 | 100 | 1021.1 |
| 20260903014236 | 13 | 232 | 9.7 | 12.9 | 0.00 | 0.00 | 0.00 | 100 | 1021.1 |
| 20260903013736 | 13 | 237 | 11.3 | 12.9 | 0.00 | 0.00 | 0.00 | 100 | 1021.1 |
| 20260903013236 | 13 | 233 | 11.3 | 14.5 | 0.00 | 0.00 | 0.00 | 100 | 1021.1 |
| 20260903012736 | 13 | 235 | 9.7 | 12.9 | 0.00 | 0.00 | 0.00 | 100 | 1021.2 |
| 20260903012235 | 13 | 225 | 11.3 | 12.9 | 0.00 | 0.00 | 0.00 | 100 | 1021.3 |
| 20260903011735 | 13 | 227 | 9.7 | 11.3 | 0.00 | 0.00 | 0.00 | 100 | 1021.3 |
| 20260903011235 | 13 | 223 | 8.0 | 11.3 | 0.00 | 0.00 | 0.00 | 100 | 1021.3 |
| 20260903010734 | 13 | 232 | 9.7 | 12.9 | 0.00 | 0.00 | 0.00 | 100 | 1021.3 |
| 20260903010234 | 13 | 234 | 11.3 | 11.3 | 0.00 | 0.00 | 0.00 | 100 | 1021.2 |
| 20260903005733 | 13 | 239 | 11.3 | 14.5 | 0.00 | 0.00 | 0.00 | 100 | 1021.3 |
| 20260903005233 | 13 | 230 | 11.3 | 14.5 | 0.00 | 0.00 | 0.00 | 100 | 1021.3 |
| 20260903004733 | 13 | 225 | 9.7 | 12.9 | 0.00 | 0.00 | 0.00 | 100 | 1021.2 |
| 20260903004233 | 13 | 232 | 9.7 | 11.3 | 0.00 | 0.00 | 0.00 | 100 | 1021.2 |
| 20260903003732 | 13 | 222 | 9.7 | 12.9 | 0.00 | 0.00 | 0.00 | 100 | 1021.2 |
| 20260903003232 | 13 | 230 | 11.3 | 14.5 | 0.00 | 0.00 | 0.00 | 100 | 1021.2 |
| 20260903002732 | 13 | 230 | 11.3 | 12.9 | 0.00 | 0.00 | 0.00 | 100 | 1021.1 |
| 20260903002231 | 13 | 227 | 9.7 | 12.9 | 0.00 | 0.00 | 0.00 | 100 | 1021.1 |
| 20260903001731 | 13 | 233 | 11.3 | 14.5 | 0.00 | 0.00 | 0.00 | 100 | 1021.1 |
| 20260903001231 | 13 | 225 | 9.7 | 12.9 | 0.00 | 0.00 | 0.00 | 100 | 1021.1 |
| 20260903000730 | 13 | 228 | 11.3 | 16.1 | 0.00 | 0.00 | 0.00 | 100 | 1021.2 |
| 20260903000230 | 13 | 237 | 9.7 | 12.9 | 0.00 | 0.00 | 0.00 | 100 | 1021.1 |
| 20260902235730 | 14 | 230 | 9.7 | 12.9 | 0.00 | 0.00 | 0.00 | 100 | 1021.2 |
| 20260902235229 | 14 | 235 | 11.3 | 14.5 | 0.00 | 0.00 | 0.00 | 100 | 1021.1 |
| 20260902234729 | 14 | 232 | 11.3 | 14.5 | 0.00 | 0.00 | 0.00 | 100 | 1021.1 |
| 20260902234228 | 14 | 230 | 11.3 | 14.5 | 0.00 | 0.00 | 0.00 | 100 | 1021.1 |
| 20260902233728 | 14 | 227 | 11.3 | 14.5 | 0.00 | 0.00 | 0.00 | 100 | 1021.2 |
| 20260902233228 | 14 | 222 | 11.3 | 12.9 | 0.00 | 0.00 | 0.00 | 100 | 1021.1 |
| 20260902232727 | 13 | 228 | 8.0 | 9.7 | 0.00 | 0.00 | 0.00 | 100 | 1021.1 |
| 20260902232227 | 13 | 222 | 9.7 | 11.3 | 0.00 | 0.00 | 0.00 | 100 | 1021.1 |
| 20260902231727 | 14 | 228 | 11.3 | 12.9 | 0.00 | 0.00 | 0.00 | 100 | 1021.1 |
| 20260902231226 | 14 | 235 | 9.7 | 12.9 | 0.00 | 0.00 | 0.00 | 100 | 1021.1 |
| 20260902230726 | 14 | 228 | 9.7 | 12.9 | 0.00 | 0.00 | 0.00 | 100 | 1021.2 |
| 20260902230226 | 14 | 228 | 11.3 | 14.5 | 0.00 | 0.00 | 0.00 | 100 | 1021.1 |
| 20260902225725 | 14 | 228 | 11.3 | 14.5 | 0.00 | 0.00 | 0.00 | 100 | 1021.2 |
| 20260902225225 | 14 | 218 | 11.3 | 14.5 | 0.00 | 0.00 | 0.00 | 100 | 1021.2 |
| 20260902224724 | 14 | 225 | 9.7 | 12.9 | 0.00 | 0.00 | 0.00 | 100 | 1021.2 |
| 20260902224224 | 14 | 225 | 8.0 | 9.7 | 0.00 | 0.00 | 0.00 | 100 | 1021.2 |
| 20260902223724 | 14 | 234 | 9.7 | 12.9 | 0.00 | 0.00 | 0.00 | 100 | 1021.2 |
| 20260902223223 | 15 | 230 | 9.7 | 11.3 | 0.00 | 0.00 | 0.00 | 100 | 1021.2 |
| 20260902222723 | 15 | 224 | 8.0 | 9.7 | 0.00 | 0.00 | 0.00 | 100 | 1021.2 |
| 20260902222222 | 15 | 227 | 8.0 | 9.7 | 0.00 | 0.00 | 0.00 | 100 | 1021.2 |
| 20260902221722 | 15 | 232 | 9.7 | 14.5 | 0.00 | 0.00 | 0.00 | 100 | 1021.2 |
| 20260902221221 | 15 | 222 | 14.5 | 22.5 | 0.00 | 0.00 | 0.00 | 100 | 1021.2 |
| 20260902220721 | 15 | 225 | 12.9 | 22.5 | 0.00 | 0.00 | 0.00 | 100 | 1021.2 |
| 20260902220221 | 15 | 227 | 12.9 | 20.9 | 0.00 | 0.00 | 0.00 | 100 | 1021.2 |
| 20260902215720 | 15 | 223 | 9.7 | 11.3 | 0.00 | 0.00 | 0.00 | 100 | 1021.1 |
| 20260902215220 | 15 | 222 | 9.7 | 12.9 | 0.00 | 0.00 | 0.00 | 100 | 1021.1 |
| 20260902214719 | 15 | 225 | 11.3 | 14.5 | 0.00 | 0.00 | 0.00 | 100 | 1021.2 |
| 20260902214219 | 15 | 222 | 9.7 | 11.3 | 0.00 | 0.00 | 0.00 | 100 | 1021.1 |
| 20260902213718 | 15 | 222 | 8.0 | 14.5 | 0.00 | 0.00 | 0.00 | 100 | 1021.2 |
| 20260902213218 | 15 | 228 | 9.7 | 14.5 | 0.00 | 0.00 | 0.00 | 100 | 1021.1 |
| 20260902212717 | 15 | 225 | 9.7 | 14.5 | 0.00 | 0.00 | 0.00 | 100 | 1021.0 |
| 20260902212217 | 15 | 222 | 9.7 | 11.3 | 0.00 | 0.00 | 0.00 | 100 | 1021.1 |
| 20260902211717 | 15 | 225 | 8.0 | 11.3 | 0.00 | 0.00 | 0.00 | 100 | 1021.0 |
| 20260902211216 | 15 | 228 | 11.3 | 12.9 | 0.00 | 0.00 | 0.00 | 100 | 1021.1 |
| 20260902210716 | 15 | 222 | 8.0 | 9.7 | 0.00 | 0.00 | 0.00 | 100 | 1021.1 |
| 20260902210215 | 15 | 225 | 6.4 | 8.0 | 0.00 | 0.00 | 0.00 | 100 | 1021.0 |
| 20260902205715 | 15 | 232 | 8.0 | 11.3 | 0.00 | 0.00 | 0.00 | 100 | 1021.0 |
| 20260902205214 | 15 | 225 | 8.0 | 14.5 | 0.00 | 0.00 | 0.00 | 100 | 1021.0 |
| 20260902204714 | 15 | 230 | 8.0 | 14.5 | 0.00 | 0.00 | 0.00 | 100 | 1021.0 |
| 20260902204213 | 15 | 249 | 8.0 | 9.7 | 0.00 | 0.00 | 0.00 | 100 | 1021.0 |
| 20260902203713 | 15 | 265 | 6.4 | 9.7 | 0.00 | 0.00 | 0.00 | 100 | 1020.9 |
| 20260902203212 | 15 | 250 | 6.4 | 11.3 | 0.00 | 0.00 | 0.00 | 100 | 1020.9 |
| 20260902202712 | 15 | 215 | 11.3 | 17.7 | 0.00 | 0.00 | 0.00 | 100 | 1020.8 |
| 20260902202211 | 15 | 239 | 16.1 | 20.9 | 0.00 | 0.00 | 0.00 | 100 | 1021.1 |
| 20260902201711 | 15 | 242 | 11.3 | 16.1 | 0.00 | 0.00 | 0.00 | 100 | 1021.2 |
| 20260902201210 | 15 | 251 | 11.3 | 14.5 | 0.00 | 0.00 | 0.00 | 100 | 1021.2 |
| 20260902200710 | 16 | 246 | 16.1 | 30.6 | 0.00 | 0.00 | 0.00 | 100 | 1021.2 |
| 20260902200209 | 17 | 252 | 11.3 | 12.9 | 0.00 | 0.00 | 0.00 | 100 | 1020.9 |
| 20260902195708 | 17 | 254 | 11.3 | 11.3 | 0.00 | 0.00 | 0.00 | 100 | 1020.7 |
| 20260902195208 | 17 | 249 | 9.7 | 11.3 | 0.00 | 0.00 | 0.00 | 100 | 1020.7 |
| 20260902194707 | 16 | 268 | 8.0 | 11.3 | 0.00 | 0.00 | 0.00 | 100 | 1020.7 |
| 20260902194207 | 16 | 268 | 9.7 | 14.5 | 0.00 | 0.00 | 0.00 | 100 | 1020.7 |
| 20260902193706 | 16 | 291 | 6.4 | 8.0 | 0.00 | 0.00 | 0.00 | 100 | 1020.7 |
| 20260902193206 | 15 | 346 | 6.4 | 9.7 | 0.00 | 0.00 | 0.00 | 100 | 1020.8 |
| 20260902192705 | 16 | 2 | 3.2 | 8.0 | 0.00 | 0.00 | 0.00 | 100 | 1020.7 |
| 20260902192205 | 16 | 230 | 9.7 | 9.7 | 0.00 | 0.00 | 0.00 | 100 | 1020.5 |
| 20260902191704 | 16 | 227 | 9.7 | 11.3 | 0.00 | 0.00 | 0.00 | 100 | 1020.5 |
| 20260902191203 | 16 | 230 | 11.3 | 11.3 | 0.00 | 0.00 | 0.00 | 100 | 1020.5 |
| 20260902190703 | 16 | 228 | 9.7 | 11.3 | 0.00 | 0.00 | 0.00 | 100 | 1020.4 |
| 20260902190202 | 16 | 225 | 9.7 | 11.3 | 0.00 | 0.00 | 0.00 | 100 | 1020.4 |
| 20260902185702 | 16 | 225 | 8.0 | 9.7 | 0.00 | 0.00 | 0.00 | 100 | 1020.4 |
| 20260902185203 | 16 | 210 | 6.4 | 9.7 | 0.00 | 0.00 | 0.00 | 100 | 1020.4 |
| 20260902184701 | 15 | 281 | 1.6 | 4.8 | 0.00 | 0.00 | 0.00 | 100 | 1020.3 |
| 20260902184200 | 15 | 227 | 6.4 | 12.9 | 0.00 | 0.00 | 0.00 | 100 | 1020.3 |
| 20260902183700 | 15 | 301 | 3.2 | 8.0 | 0.00 | 0.00 | 0.00 | 100 | 1020.3 |
| 20260902183159 | 15 | 317 | 8.0 | 14.5 | 0.00 | 0.00 | 0.00 | 100 | 1020.4 |
| 20260902182659 | 15 | 312 | 14.5 | 22.5 | 0.00 | 0.00 | 0.00 | 100 | 1020.4 |
| 20260902182158 | 15 | 306 | 16.1 | 24.1 | 0.00 | 0.00 | 0.00 | 100 | 1020.4 |
| 20260902181658 | 15 | 273 | 22.5 | 27.4 | 0.00 | 0.00 | 0.00 | 100 | 1020.5 |
| 20260902181157 | 15 | 268 | 22.5 | 30.6 | 0.00 | 0.00 | 0.00 | 100 | 1020.6 |
| 20260902180657 | 15 | 282 | 29.0 | 40.2 | 0.00 | 0.00 | 0.00 | 93 | 1020.5 |
| 20260902180156 | 16 | 294 | 22.5 | 33.8 | 0.00 | 0.00 | 0.00 | 78 | 1020.1 |
| 20260902175655 | 20 | 273 | 12.9 | 19.3 | 0.00 | 0.00 | 0.00 | 56 | 1019.8 |
| 20260902175154 | 21 | 242 | 8.0 | 8.0 | 0.00 | 0.00 | 0.00 | 48 | 1019.7 |
| 20260902174654 | 21 | 251 | 6.4 | 9.7 | 0.00 | 0.00 | 0.00 | 47 | 1019.6 |
| 20260902174152 | 21 | 249 | 6.4 | 9.7 | 0.00 | 0.00 | 0.00 | 46 | 1019.5 |
| 20260902173651 | 21 | 239 | 6.4 | 9.7 | 0.00 | 0.00 | 0.00 | 46 | 1019.5 |
| 20260902173150 | 21 | 232 | 6.4 | 9.7 | 0.00 | 0.00 | 0.00 | 46 | 1019.5 |
| 20260902172649 | 22 | 261 | 9.7 | 12.9 | 0.00 | 0.00 | 0.00 | 46 | 1019.5 |
| 20260902172148 | 22 | 241 | 9.7 | 14.5 | 0.00 | 0.00 | 0.00 | 45 | 1019.5 |
| 20260902171647 | 22 | 232 | 8.0 | 12.9 | 0.00 | 0.00 | 0.00 | 45 | 1019.4 |
| 20260902171146 | 22 | 225 | 8.0 | 11.3 | 0.00 | 0.00 | 0.00 | 45 | 1019.5 |
| 20260902170645 | 22 | 225 | 9.7 | 11.3 | 0.00 | 0.00 | 0.00 | 45 | 1019.4 |
| 20260902170144 | 22 | 221 | 8.0 | 11.3 | 0.00 | 0.00 | 0.00 | 45 | 1019.5 |
| 20260902165642 | 22 | 237 | 9.7 | 12.9 | 0.00 | 0.00 | 0.00 | 44 | 1019.5 |
| 20260902165141 | 23 | 246 | 9.7 | 12.9 | 0.00 | 0.00 | 0.00 | 44 | 1019.5 |
| 20260902164640 | 23 | 220 | 11.3 | 14.5 | 0.00 | 0.00 | 0.00 | 43 | 1019.5 |
| 20260902164139 | 23 | 223 | 8.0 | 12.9 | 0.00 | 0.00 | 0.00 | 43 | 1019.6 |
| 20260902163638 | 24 | 204 | 6.4 | 9.7 | 0.00 | 0.00 | 0.00 | 42 | 1019.6 |
| 20260902163136 | 23 | 218 | 4.8 | 9.7 | 0.00 | 0.00 | 0.00 | 43 | 1019.6 |
| 20260902162635 | 24 | 232 | 8.0 | 9.7 | 0.00 | 0.00 | 0.00 | 42 | 1019.6 |
| 20260902162134 | 24 | 236 | 6.4 | 9.7 | 0.00 | 0.00 | 0.00 | 41 | 1019.6 |
| 20260902161632 | 25 | 244 | 6.4 | 9.7 | 0.00 | 0.00 | 0.00 | 41 | 1019.6 |
| 20260902161131 | 25 | 251 | 8.0 | 9.7 | 0.00 | 0.00 | 0.00 | 40 | 1019.5 |
| 20260902160629 | 25 | 237 | 8.0 | 12.9 | 0.00 | 0.00 | 0.00 | 40 | 1019.5 |
| 20260902160128 | 26 | 204 | 4.8 | 9.7 | 0.00 | 0.00 | 0.00 | 40 | 1019.6 |
| 20260902155626 | 26 | 225 | 6.4 | 9.7 | 0.00 | 0.00 | 0.00 | 40 | 1019.5 |
| 20260902155125 | 26 | 242 | 9.7 | 14.5 | 0.00 | 0.00 | 0.00 | 40 | 1019.5 |
| 20260902154623 | 26 | 241 | 8.0 | 11.3 | 0.00 | 0.00 | 0.00 | 39 | 1019.5 |
| 20260902154122 | 26 | 257 | 9.7 | 14.5 | 0.00 | 0.00 | 0.00 | 39 | 1019.6 |
| 20260902153620 | 26 | 257 | 4.8 | 8.0 | 0.00 | 0.00 | 0.00 | 40 | 1019.6 |
| 20260902153119 | 26 | 254 | 3.2 | 6.4 | 0.00 | 0.00 | 0.00 | 40 | 1019.6 |
| 20260902152617 | 25 | 269 | 6.4 | 11.3 | 0.00 | 0.00 | 0.00 | 42 | 1019.7 |
| 20260902152116 | 24 | 265 | 8.0 | 12.9 | 0.00 | 0.00 | 0.00 | 42 | 1019.8 |
| 20260902151615 | 24 | 256 | 6.4 | 11.3 | 0.00 | 0.00 | 0.00 | 41 | 1019.9 |
| 20260902151113 | 25 | 257 | 4.8 | 6.4 | 0.00 | 0.00 | 0.00 | 41 | 1020.0 |
| 20260902150612 | 25 | 283 | 6.4 | 9.7 | 0.00 | 0.00 | 0.00 | 40 | 1020.0 |
| 20260902150110 | 26 | 285 | 6.4 | 9.7 | 0.00 | 0.00 | 0.00 | 39 | 1020.0 |
| 20260902145608 | 26 | 272 | 8.0 | 9.7 | 0.00 | 0.00 | 0.00 | 39 | 1020.0 |
| 20260902145107 | 26 | 272 | 12.9 | 19.3 | 0.00 | 0.00 | 0.00 | 39 | 1020.1 |
| 20260902144605 | 26 | 272 | 14.5 | 17.7 | 0.00 | 0.00 | 0.00 | 38 | 1020.0 |
| 20260902144104 | 27 | 241 | 8.0 | 17.7 | 0.00 | 0.00 | 0.00 | 38 | 1020.1 |
| 20260902143602 | 27 | 239 | 6.4 | 11.3 | 0.00 | 0.00 | 0.00 | 38 | 1020.1 |
| 20260902143100 | 27 | 268 | 8.0 | 11.3 | 0.00 | 0.00 | 0.00 | 38 | 1020.2 |
| 20260902142559 | 26 | 251 | 6.4 | 11.3 | 0.00 | 0.00 | 0.00 | 39 | 1020.3 |
| 20260902142057 | 26 | 284 | 9.7 | 17.7 | 0.00 | 0.00 | 0.00 | 38 | 1020.3 |
| 20260902141555 | 26 | 258 | 8.0 | 11.3 | 0.00 | 0.00 | 0.00 | 39 | 1020.3 |
| 20260902141054 | 26 | 253 | 9.7 | 14.5 | 0.00 | 0.00 | 0.00 | 39 | 1020.3 |
| 20260902140552 | 26 | 268 | 14.5 | 20.9 | 0.00 | 0.00 | 0.00 | 38 | 1020.4 |
| 20260902140050 | 26 | 251 | 11.3 | 17.7 | 0.00 | 0.00 | 0.00 | 38 | 1020.4 |
| 20260902135549 | 27 | 222 | 9.7 | 19.3 | 0.00 | 0.00 | 0.00 | 37 | 1020.4 |
| 20260902135047 | 27 | 249 | 9.7 | 16.1 | 0.00 | 0.00 | 0.00 | 38 | 1020.6 |
| 20260902134545 | 27 | 233 | 8.0 | 12.9 | 0.00 | 0.00 | 0.00 | 38 | 1020.5 |
| 20260902134043 | 27 | 236 | 12.9 | 19.3 | 0.00 | 0.00 | 0.00 | 37 | 1020.5 |
| 20260902133541 | 27 | 268 | 9.7 | 17.7 | 0.00 | 0.00 | 0.00 | 38 | 1020.6 |
| 20260902133040 | 26 | 239 | 9.7 | 12.9 | 0.00 | 0.00 | 0.00 | 38 | 1020.6 |